createdAt,value
2018-02-26T00:00:38.112Z,-1.45
2018-02-26T00:01:18.665Z,-1.43
2018-02-26T00:01:59.232Z,-1.56
2018-02-26T00:02:39.816Z,-1.55
2018-02-26T00:03:20.353Z,-1.48
2018-02-26T00:04:00.896Z,-1.46
2018-02-26T00:04:41.425Z,-1.45
2018-02-26T00:05:21.961Z,-1.45
2018-02-26T00:06:02.502Z,-1.43
2018-02-26T00:06:43.120Z,-1.55
2018-02-26T00:07:23.640Z,-1.48
2018-02-26T00:08:04.169Z,-1.49
2018-02-26T00:08:44.720Z,-1.38
2018-02-26T00:09:25.292Z,-1.4
2018-02-26T00:10:05.831Z,-1.41
2018-02-26T00:10:46.374Z,-1.48
2018-02-26T00:11:26.956Z,-1.51
2018-02-26T00:12:07.491Z,-1.28
2018-02-26T00:12:48.060Z,-1.37
2018-02-26T00:13:28.624Z,-1.22
2018-02-26T00:14:09.189Z,-1.41
2018-02-26T00:14:49.739Z,-1.41
2018-02-26T00:15:30.313Z,-1.51
2018-02-26T00:16:10.926Z,-1.49
2018-02-26T00:16:51.454Z,-1.49
2018-02-26T00:17:31.994Z,-1.56
2018-02-26T00:18:12.540Z,-1.52
2018-02-26T00:18:53.109Z,-1.4
2018-02-26T00:19:33.654Z,-1.51
2018-02-26T00:20:14.196Z,-1.55
2018-02-26T00:20:54.727Z,-1.56
2018-02-26T00:21:35.291Z,-1.62
2018-02-26T00:22:15.799Z,-1.59
2018-02-26T00:22:56.392Z,-1.59
2018-02-26T00:23:36.905Z,-1.73
2018-02-26T00:24:17.433Z,-1.73
2018-02-26T00:24:57.970Z,-1.77
2018-02-26T00:25:38.492Z,-1.77
2018-02-26T00:26:19.039Z,-1.77
2018-02-26T00:26:59.603Z,-1.74
2018-02-26T00:27:40.133Z,-1.76
2018-02-26T00:28:20.725Z,-1.74
2018-02-26T00:29:01.242Z,-1.82
2018-02-26T00:29:41.771Z,-1.84
2018-02-26T00:30:22.299Z,-1.95
2018-02-26T00:31:02.884Z,-1.94
2018-02-26T00:31:43.407Z,-1.85
2018-02-26T00:32:23.949Z,-1.84
2018-02-26T00:33:04.483Z,-1.79
2018-02-26T00:33:45.048Z,-1.92
2018-02-26T00:34:25.568Z,-1.97
2018-02-26T00:35:06.165Z,-1.88
2018-02-26T00:35:46.676Z,-1.84
2018-02-26T00:36:27.200Z,-1.74
2018-02-26T00:37:07.772Z,-1.82
2018-02-26T00:37:48.260Z,-1.79
2018-02-26T00:38:28.820Z,-1.72
2018-02-26T00:39:09.348Z,-1.7
2018-02-26T00:39:49.892Z,-1.76
2018-02-26T00:40:30.408Z,-1.79
2018-02-26T00:41:10.928Z,-1.76
2018-02-26T00:41:51.506Z,-1.72
2018-02-26T00:42:32.032Z,-1.79
2018-02-26T00:43:12.622Z,-1.72
2018-02-26T00:43:53.084Z,-1.67
2018-02-26T00:44:33.616Z,-1.8
2018-02-26T00:45:14.126Z,-1.76
2018-02-26T00:45:54.660Z,-1.79
2018-02-26T00:46:35.182Z,-1.84
2018-02-26T00:47:15.738Z,-1.84
2018-02-26T00:47:56.269Z,-1.87
2018-02-26T00:48:36.803Z,-1.82
2018-02-26T00:49:17.360Z,-1.79
2018-02-26T00:49:57.851Z,-1.84
2018-02-26T00:50:38.508Z,-1.69
2018-02-26T00:51:19.039Z,-1.76
2018-02-26T00:51:59.584Z,-1.84
2018-02-26T00:52:40.141Z,-1.87
2018-02-26T00:53:20.680Z,-1.77
2018-02-26T00:54:01.234Z,-1.69
2018-02-26T00:54:41.817Z,-1.85
2018-02-26T00:55:22.372Z,-1.84
2018-02-26T00:56:02.875Z,-1.74
2018-02-26T00:56:43.391Z,-1.72
2018-02-26T00:57:23.992Z,-1.88
2018-02-26T00:58:04.499Z,-1.95
2018-02-26T00:58:45.044Z,-2.03
2018-02-26T00:59:25.650Z,-2.09
2018-02-26T01:00:06.173Z,-2.09
2018-02-26T01:00:46.737Z,-2
2018-02-26T01:01:27.382Z,-1.95
2018-02-26T01:02:07.876Z,-1.82
2018-02-26T01:02:48.437Z,-1.8
2018-02-26T01:03:28.988Z,-1.87
2018-02-26T01:04:09.508Z,-1.7
2018-02-26T01:04:50.032Z,-1.7
2018-02-26T01:05:30.586Z,-1.84
2018-02-26T01:06:11.113Z,-1.84
2018-02-26T01:06:51.675Z,-1.77
2018-02-26T01:07:32.198Z,-1.95
2018-02-26T01:08:12.765Z,-1.9
2018-02-26T01:08:53.268Z,-1.9
2018-02-26T01:09:33.810Z,-1.94
2018-02-26T01:10:14.353Z,-1.95
2018-02-26T01:10:54.925Z,-1.91
2018-02-26T01:11:35.454Z,-1.91
2018-02-26T01:12:15.932Z,-1.92
2018-02-26T01:12:56.468Z,-1.91
2018-02-26T01:13:37.035Z,-1.85
2018-02-26T01:14:17.521Z,-1.82
2018-02-26T01:14:58.046Z,-1.74
2018-02-26T01:15:38.567Z,-1.74
2018-02-26T01:16:19.125Z,-1.73
2018-02-26T01:16:59.672Z,-1.72
2018-02-26T01:17:40.227Z,-1.76
2018-02-26T01:18:20.776Z,-1.73
2018-02-26T01:19:01.317Z,-1.73
2018-02-26T01:19:41.811Z,-1.76
2018-02-26T01:20:22.327Z,-1.84
2018-02-26T01:21:02.841Z,-1.76
2018-02-26T01:21:43.418Z,-1.77
2018-02-26T01:22:23.939Z,-1.82
2018-02-26T01:23:04.452Z,-1.87
2018-02-26T01:23:44.932Z,-1.88
2018-02-26T01:24:25.511Z,-1.95
2018-02-26T01:25:06.063Z,-1.94
2018-02-26T01:25:46.623Z,-1.87
2018-02-26T01:26:27.185Z,-1.84
2018-02-26T01:27:07.737Z,-1.97
2018-02-26T01:27:48.295Z,-1.95
2018-02-26T01:28:28.847Z,-2.05
2018-02-26T01:29:09.376Z,-1.98
2018-02-26T01:29:49.914Z,-2.06
2018-02-26T01:30:30.449Z,-2.06
2018-02-26T01:31:10.992Z,-2.08
2018-02-26T01:31:51.576Z,-2.12
2018-02-26T01:32:32.042Z,-2.1
2018-02-26T01:33:12.588Z,-2.13
2018-02-26T01:33:53.099Z,-2.08
2018-02-26T01:34:33.647Z,-2.06
2018-02-26T01:35:14.231Z,-2.27
2018-02-26T01:35:54.772Z,-2.16
2018-02-26T01:36:35.318Z,-2.16
2018-02-26T01:37:15.868Z,-2.26
2018-02-26T01:37:56.406Z,-2.15
2018-02-26T01:38:36.937Z,-2.3
2018-02-26T01:39:17.433Z,-2.21
2018-02-26T01:39:57.972Z,-2.39
2018-02-26T01:40:38.462Z,-2.24
2018-02-26T01:41:19.027Z,-2.26
2018-02-26T01:41:59.572Z,-2.35
2018-02-26T01:42:40.128Z,-2.37
2018-02-26T01:43:20.686Z,-2.27
2018-02-26T01:44:01.236Z,-2.27
2018-02-26T01:44:41.764Z,-2.26
2018-02-26T01:45:22.260Z,-2.24
2018-02-26T01:46:02.810Z,-2.12
2018-02-26T01:46:43.338Z,-2.08
2018-02-26T01:47:23.886Z,-2.1
2018-02-26T01:48:04.414Z,-1.92
2018-02-26T01:48:44.958Z,-1.87
2018-02-26T01:49:25.510Z,-2.03
2018-02-26T01:50:06.054Z,-2.15
2018-02-26T01:50:46.590Z,-2.13
2018-02-26T01:51:27.131Z,-2.16
2018-02-26T01:52:07.615Z,-2.21
2018-02-26T01:52:48.156Z,-2.21
2018-02-26T01:53:28.717Z,-2.12
2018-02-26T01:54:09.250Z,-2.12
2018-02-26T01:54:49.797Z,-2.1
2018-02-26T01:55:30.334Z,-2.1
2018-02-26T01:56:10.874Z,-2.09
2018-02-26T01:56:51.411Z,-2.02
2018-02-26T01:57:32.007Z,-2
2018-02-26T01:58:12.485Z,-2.08
2018-02-26T01:58:53.056Z,-2.06
2018-02-26T01:59:33.585Z,-1.94
2018-02-26T02:00:14.119Z,-1.92
2018-02-26T02:00:54.698Z,-1.95
2018-02-26T02:01:35.195Z,-1.98
2018-02-26T02:02:15.739Z,-1.97
2018-02-26T02:02:56.280Z,-1.98
2018-02-26T02:03:36.829Z,-2.08
2018-02-26T02:04:17.368Z,-1.95
2018-02-26T02:04:57.902Z,-1.94
2018-02-26T02:05:38.456Z,-2.13
2018-02-26T02:06:19.003Z,-2.08
2018-02-26T02:06:59.531Z,-2.23
2018-02-26T02:07:40.069Z,-2.18
2018-02-26T02:08:20.608Z,-2.1
2018-02-26T02:09:01.147Z,-2.12
2018-02-26T02:09:41.710Z,-2.2
2018-02-26T02:10:22.262Z,-2.2
2018-02-26T02:11:02.788Z,-2.26
2018-02-26T02:11:43.340Z,-2.18
2018-02-26T02:12:23.885Z,-2.12
2018-02-26T02:13:04.450Z,-2.35
2018-02-26T02:13:45.012Z,-2.46
2018-02-26T02:14:25.586Z,-2.48
2018-02-26T02:15:06.119Z,-2.3
2018-02-26T02:15:46.676Z,-2.3
2018-02-26T02:16:27.229Z,-2.18
2018-02-26T02:17:07.768Z,-2.23
2018-02-26T02:17:48.325Z,-2.24
2018-02-26T02:18:28.880Z,-2.26
2018-02-26T02:19:09.436Z,-2.32
2018-02-26T02:19:49.991Z,-2.52
2018-02-26T02:20:30.539Z,-2.35
2018-02-26T02:21:11.212Z,-2.45
2018-02-26T02:21:51.808Z,-2.42
2018-02-26T02:22:32.371Z,-2.37
2018-02-26T02:23:12.995Z,-2.45
2018-02-26T02:23:53.547Z,-2.34
2018-02-26T02:24:34.105Z,-2.34
2018-02-26T02:25:14.645Z,-2.42
2018-02-26T02:25:55.169Z,-2.5
2018-02-26T02:26:35.749Z,-2.39
2018-02-26T02:27:16.305Z,-2.52
2018-02-26T02:27:56.872Z,-2.37
2018-02-26T02:28:37.434Z,-2.37
2018-02-26T02:29:17.978Z,-2.27
2018-02-26T02:29:58.536Z,-2.18
2018-02-26T02:30:39.089Z,-2.13
2018-02-26T02:31:19.642Z,-2.08
2018-02-26T02:32:00.203Z,-1.95
2018-02-26T02:32:40.757Z,-1.92
2018-02-26T02:33:21.336Z,-1.94
2018-02-26T02:34:01.872Z,-1.98
2018-02-26T02:34:42.430Z,-2.15
2018-02-26T02:35:22.976Z,-1.97
2018-02-26T02:36:03.523Z,-2.08
2018-02-26T02:36:44.069Z,-2.08
2018-02-26T02:37:24.627Z,-1.97
2018-02-26T02:38:05.172Z,-2.09
2018-02-26T02:38:45.716Z,-2.13
2018-02-26T02:39:26.267Z,-2.08
2018-02-26T02:40:06.811Z,-2.05
2018-02-26T02:40:47.363Z,-2.06
2018-02-26T02:41:27.924Z,-1.9
2018-02-26T02:42:08.458Z,-1.87
2018-02-26T02:42:49.002Z,-2.13
2018-02-26T02:43:29.563Z,-2.21
2018-02-26T02:44:10.115Z,-2.27
2018-02-26T02:44:50.640Z,-2.27
2018-02-26T02:45:31.181Z,-2.3
2018-02-26T02:46:11.746Z,-2.3
2018-02-26T02:46:52.266Z,-2.3
2018-02-26T02:47:32.795Z,-2.34
2018-02-26T02:48:13.312Z,-2.4
2018-02-26T02:48:53.869Z,-2.45
2018-02-26T02:49:34.416Z,-2.56
2018-02-26T02:50:14.952Z,-2.64
2018-02-26T02:50:55.497Z,-2.6
2018-02-26T02:51:36.041Z,-2.6
2018-02-26T02:52:16.581Z,-2.56
2018-02-26T02:52:57.174Z,-2.56
2018-02-26T02:53:37.741Z,-2.67
2018-02-26T02:54:18.255Z,-2.55
2018-02-26T02:54:58.759Z,-2.43
2018-02-26T02:55:39.297Z,-2.46
2018-02-26T02:56:19.885Z,-2.5
2018-02-26T02:57:00.408Z,-2.49
2018-02-26T02:57:40.976Z,-2.45
2018-02-26T02:58:21.469Z,-2.46
2018-02-26T02:59:02.002Z,-2.5
2018-02-26T02:59:42.529Z,-2.42
2018-02-26T03:00:23.031Z,-2.3
2018-02-26T03:01:03.554Z,-2.2
2018-02-26T03:01:44.094Z,-2.45
2018-02-26T03:02:24.648Z,-2.35
2018-02-26T03:03:05.190Z,-2.66
2018-02-26T03:03:45.734Z,-2.63
2018-02-26T03:04:26.270Z,-2.67
2018-02-26T03:05:06.826Z,-2.5
2018-02-26T03:05:47.395Z,-2.46
2018-02-26T03:06:27.884Z,-2.55
2018-02-26T03:07:08.422Z,-2.63
2018-02-26T03:07:48.989Z,-2.66
2018-02-26T03:08:29.525Z,-2.63
2018-02-26T03:09:10.091Z,-2.63
2018-02-26T03:09:50.563Z,-2.66
2018-02-26T03:10:31.154Z,-2.58
2018-02-26T03:11:11.637Z,-2.67
2018-02-26T03:11:52.192Z,-2.67
2018-02-26T03:12:32.739Z,-2.71
2018-02-26T03:13:13.285Z,-2.67
2018-02-26T03:13:53.835Z,-2.7
2018-02-26T03:14:34.368Z,-2.66
2018-02-26T03:15:14.946Z,-2.66
2018-02-26T03:15:55.500Z,-2.63
2018-02-26T03:16:36.040Z,-2.64
2018-02-26T03:17:16.577Z,-2.63
2018-02-26T03:17:57.137Z,-2.6
2018-02-26T03:18:37.732Z,-2.68
2018-02-26T03:19:18.300Z,-2.67
2018-02-26T03:19:58.812Z,-2.6
2018-02-26T03:20:39.366Z,-2.71
2018-02-26T03:21:19.914Z,-2.68
2018-02-26T03:22:00.469Z,-2.66
2018-02-26T03:22:41.003Z,-2.63
2018-02-26T03:23:21.556Z,-2.74
2018-02-26T03:24:02.111Z,-2.67
2018-02-26T03:24:42.641Z,-2.61
2018-02-26T03:25:23.185Z,-2.68
2018-02-26T03:26:03.742Z,-2.74
2018-02-26T03:26:44.273Z,-2.61
2018-02-26T03:27:24.853Z,-2.67
2018-02-26T03:28:05.420Z,-2.67
2018-02-26T03:28:45.962Z,-2.82
2018-02-26T03:29:26.497Z,-2.82
2018-02-26T03:30:07.071Z,-2.73
2018-02-26T03:30:47.564Z,-2.84
2018-02-26T03:31:28.091Z,-2.97
2018-02-26T03:32:08.619Z,-2.91
2018-02-26T03:32:49.142Z,-2.85
2018-02-26T03:33:29.711Z,-2.91
2018-02-26T03:34:10.238Z,-2.85
2018-02-26T03:34:50.771Z,-2.88
2018-02-26T03:35:31.331Z,-2.82
2018-02-26T03:36:11.876Z,-2.92
2018-02-26T03:36:52.411Z,-2.84
2018-02-26T03:37:32.965Z,-2.74
2018-02-26T03:38:13.529Z,-2.68
2018-02-26T03:38:54.081Z,-2.66
2018-02-26T03:39:34.646Z,-2.67
2018-02-26T03:40:15.208Z,-2.63
2018-02-26T03:40:55.738Z,-2.53
2018-02-26T03:41:36.298Z,-2.49
2018-02-26T03:42:16.866Z,-2.43
2018-02-26T03:42:57.408Z,-2.42
2018-02-26T03:43:37.944Z,-2.5
2018-02-26T03:44:18.492Z,-2.4
2018-02-26T03:44:59.038Z,-2.34
2018-02-26T03:45:39.620Z,-2.56
2018-02-26T03:46:20.182Z,-2.67
2018-02-26T03:47:00.736Z,-2.67
2018-02-26T03:47:41.296Z,-2.67
2018-02-26T03:48:21.851Z,-2.64
2018-02-26T03:49:02.386Z,-2.74
2018-02-26T03:49:42.927Z,-2.74
2018-02-26T03:50:23.462Z,-2.71
2018-02-26T03:51:04.005Z,-2.71
2018-02-26T03:51:44.575Z,-2.79
2018-02-26T03:52:25.155Z,-2.67
2018-02-26T03:53:05.681Z,-2.85
2018-02-26T03:53:46.232Z,-2.86
2018-02-26T03:54:26.760Z,-2.84
2018-02-26T03:55:07.286Z,-2.74
2018-02-26T03:55:47.827Z,-2.84
2018-02-26T03:56:28.368Z,-2.68
2018-02-26T03:57:08.905Z,-2.61
2018-02-26T03:57:49.455Z,-2.77
2018-02-26T03:58:30.004Z,-2.7
2018-02-26T03:59:10.559Z,-2.86
2018-02-26T03:59:51.096Z,-2.92
2018-02-26T04:00:31.609Z,-2.91
2018-02-26T04:01:12.143Z,-2.88
2018-02-26T04:01:52.695Z,-2.96
2018-02-26T04:02:33.195Z,-2.97
2018-02-26T04:03:13.744Z,-3
2018-02-26T04:03:54.266Z,-3.03
2018-02-26T04:04:34.814Z,-3.2
2018-02-26T04:05:15.356Z,-3.2
2018-02-26T04:05:55.915Z,-3.2
2018-02-26T04:06:36.466Z,-3.23
2018-02-26T04:07:17.006Z,-3.17
2018-02-26T04:07:57.552Z,-3.15
2018-02-26T04:08:38.082Z,-3.15
2018-02-26T04:09:18.624Z,-3.06
2018-02-26T04:09:59.174Z,-3.02
2018-02-26T04:10:39.736Z,-2.96
2018-02-26T04:11:20.261Z,-2.86
2018-02-26T04:12:00.788Z,-2.85
2018-02-26T04:12:41.339Z,-2.86
2018-02-26T04:13:21.873Z,-2.68
2018-02-26T04:14:02.410Z,-2.89
2018-02-26T04:14:42.956Z,-2.97
2018-02-26T04:15:23.628Z,-2.96
2018-02-26T04:16:04.144Z,-2.86
2018-02-26T04:16:44.662Z,-2.96
2018-02-26T04:17:25.231Z,-2.89
2018-02-26T04:18:05.749Z,-2.74
2018-02-26T04:18:46.273Z,-2.74
2018-02-26T04:19:26.822Z,-2.61
2018-02-26T04:20:07.388Z,-2.67
2018-02-26T04:20:47.971Z,-2.73
2018-02-26T04:21:28.501Z,-2.63
2018-02-26T04:22:09.037Z,-2.67
2018-02-26T04:22:49.626Z,-2.56
2018-02-26T04:23:30.210Z,-2.64
2018-02-26T04:24:10.759Z,-2.6
2018-02-26T04:24:51.317Z,-2.73
2018-02-26T04:25:31.852Z,-2.73
2018-02-26T04:26:12.375Z,-2.7
2018-02-26T04:26:52.930Z,-2.68
2018-02-26T04:27:33.477Z,-2.86
2018-02-26T04:28:14.042Z,-3.1
2018-02-26T04:28:54.588Z,-3.03
2018-02-26T04:29:35.099Z,-2.97
2018-02-26T04:30:15.614Z,-2.94
2018-02-26T04:30:56.156Z,-3.02
2018-02-26T04:31:36.716Z,-2.99
2018-02-26T04:32:17.229Z,-3.05
2018-02-26T04:32:57.771Z,-2.96
2018-02-26T04:33:38.331Z,-2.99
2018-02-26T04:34:18.876Z,-2.79
2018-02-26T04:34:59.409Z,-2.99
2018-02-26T04:35:39.978Z,-3.09
2018-02-26T04:36:20.546Z,-3.05
2018-02-26T04:37:01.110Z,-3.03
2018-02-26T04:37:41.676Z,-3.1
2018-02-26T04:38:22.188Z,-2.97
2018-02-26T04:39:02.690Z,-2.94
2018-02-26T04:39:43.253Z,-2.85
2018-02-26T04:40:23.805Z,-2.88
2018-02-26T04:41:04.341Z,-2.94
2018-02-26T04:41:44.878Z,-3.12
2018-02-26T04:42:25.396Z,-3.17
2018-02-26T04:43:05.946Z,-3.09
2018-02-26T04:43:46.494Z,-3.1
2018-02-26T04:44:27.047Z,-3
2018-02-26T04:45:07.566Z,-2.89
2018-02-26T04:45:48.121Z,-2.84
2018-02-26T04:46:28.669Z,-2.73
2018-02-26T04:47:09.190Z,-2.78
2018-02-26T04:47:49.744Z,-2.85
2018-02-26T04:48:30.308Z,-2.86
2018-02-26T04:49:10.850Z,-2.88
2018-02-26T04:49:51.410Z,-2.97
2018-02-26T04:50:31.945Z,-3.12
2018-02-26T04:51:12.493Z,-3
2018-02-26T04:51:53.051Z,-2.99
2018-02-26T04:52:33.601Z,-3.15
2018-02-26T04:53:14.135Z,-3.15
2018-02-26T04:53:54.660Z,-3
2018-02-26T04:54:35.190Z,-2.92
2018-02-26T04:55:15.736Z,-3.06
2018-02-26T04:55:56.277Z,-2.97
2018-02-26T04:56:36.844Z,-3.05
2018-02-26T04:57:17.394Z,-3
2018-02-26T04:57:57.975Z,-3.03
2018-02-26T04:58:38.526Z,-3.21
2018-02-26T04:59:19.079Z,-3.12
2018-02-26T04:59:59.613Z,-3.15
2018-02-26T05:00:40.181Z,-3.14
2018-02-26T05:01:20.727Z,-3.15
2018-02-26T05:02:01.279Z,-3.03
2018-02-26T05:02:41.804Z,-2.96
2018-02-26T05:03:22.361Z,-3
2018-02-26T05:04:02.948Z,-3.03
2018-02-26T05:04:43.476Z,-3.03
2018-02-26T05:05:24.040Z,-3.03
2018-02-26T05:06:04.595Z,-3.18
2018-02-26T05:06:45.147Z,-3.07
2018-02-26T05:07:25.684Z,-3.2
2018-02-26T05:08:06.240Z,-2.99
2018-02-26T05:08:46.812Z,-2.85
2018-02-26T05:09:27.346Z,-2.81
2018-02-26T05:10:07.884Z,-2.73
2018-02-26T05:10:48.409Z,-2.71
2018-02-26T05:11:28.937Z,-2.81
2018-02-26T05:12:09.464Z,-2.85
2018-02-26T05:12:50.005Z,-2.88
2018-02-26T05:13:30.544Z,-2.86
2018-02-26T05:14:11.068Z,-2.99
2018-02-26T05:14:51.602Z,-2.96
2018-02-26T05:15:32.157Z,-3.02
2018-02-26T05:16:12.626Z,-3.15
2018-02-26T05:16:53.197Z,-3.09
2018-02-26T05:17:33.722Z,-3.02
2018-02-26T05:18:14.248Z,-2.97
2018-02-26T05:18:54.806Z,-2.97
2018-02-26T05:19:35.346Z,-2.97
2018-02-26T05:20:15.879Z,-3.03
2018-02-26T05:20:56.452Z,-2.89
2018-02-26T05:21:36.956Z,-2.96
2018-02-26T05:22:17.500Z,-3.05
2018-02-26T05:22:58.064Z,-3.12
2018-02-26T05:23:38.604Z,-3.2
2018-02-26T05:24:19.129Z,-3.33
2018-02-26T05:24:59.670Z,-3.43
2018-02-26T05:25:40.238Z,-3.53
2018-02-26T05:26:20.759Z,-3.38
2018-02-26T05:27:01.418Z,-3.35
2018-02-26T05:27:41.986Z,-3.39
2018-02-26T05:28:22.455Z,-3.28
2018-02-26T05:29:03.007Z,-3.28
2018-02-26T05:29:43.570Z,-3.35
2018-02-26T05:30:24.170Z,-3.24
2018-02-26T05:31:04.675Z,-3.17
2018-02-26T05:31:45.213Z,-3.21
2018-02-26T05:32:25.760Z,-3.14
2018-02-26T05:33:06.321Z,-3
2018-02-26T05:33:46.866Z,-3.3
2018-02-26T05:34:27.418Z,-3.54
2018-02-26T05:35:07.949Z,-3.45
2018-02-26T05:35:48.499Z,-3.52
2018-02-26T05:36:29.086Z,-3.64
2018-02-26T05:37:09.601Z,-3.64
2018-02-26T05:37:50.152Z,-3.49
2018-02-26T05:38:30.691Z,-3.45
2018-02-26T05:39:11.240Z,-3.49
2018-02-26T05:39:51.776Z,-3.41
2018-02-26T05:40:32.322Z,-3.52
2018-02-26T05:41:12.880Z,-3.53
2018-02-26T05:41:53.441Z,-3.3
2018-02-26T05:42:34.033Z,-3.46
2018-02-26T05:43:14.534Z,-3.46
2018-02-26T05:43:55.106Z,-3.57
2018-02-26T05:44:35.650Z,-3.56
2018-02-26T05:45:16.210Z,-3.49
2018-02-26T05:45:56.780Z,-3.38
2018-02-26T05:46:37.330Z,-3.23
2018-02-26T05:47:17.874Z,-3.33
2018-02-26T05:47:58.420Z,-3.28
2018-02-26T05:48:38.967Z,-3.2
2018-02-26T05:49:19.521Z,-3.3
2018-02-26T05:50:00.077Z,-3.35
2018-02-26T05:50:40.640Z,-3.38
2018-02-26T05:51:21.189Z,-3.43
2018-02-26T05:52:01.750Z,-3.43
2018-02-26T05:52:42.272Z,-3.43
2018-02-26T05:53:22.814Z,-3.45
2018-02-26T05:54:03.347Z,-3.52
2018-02-26T05:54:43.914Z,-3.42
2018-02-26T05:55:24.468Z,-3.46
2018-02-26T05:56:05.013Z,-3.57
2018-02-26T05:56:45.574Z,-3.57
2018-02-26T05:57:26.121Z,-3.6
2018-02-26T05:58:06.675Z,-3.64
2018-02-26T05:58:47.242Z,-3.54
2018-02-26T05:59:27.801Z,-3.52
2018-02-26T06:00:08.350Z,-3.49
2018-02-26T06:00:48.911Z,-3.38
2018-02-26T06:01:29.466Z,-3.36
2018-02-26T06:02:10.013Z,-3.35
2018-02-26T06:02:50.561Z,-3.53
2018-02-26T06:03:31.108Z,-3.45
2018-02-26T06:04:11.656Z,-3.38
2018-02-26T06:04:52.213Z,-3.35
2018-02-26T06:05:32.757Z,-3.28
2018-02-26T06:06:13.308Z,-3.25
2018-02-26T06:06:53.829Z,-3.21
2018-02-26T06:07:34.368Z,-3.24
2018-02-26T06:08:14.900Z,-3.23
2018-02-26T06:08:55.438Z,-3.23
2018-02-26T06:09:36.020Z,-3.24
2018-02-26T06:10:16.581Z,-3.27
2018-02-26T06:10:57.131Z,-3.41
2018-02-26T06:11:37.688Z,-3.33
2018-02-26T06:12:18.271Z,-3.2
2018-02-26T06:12:58.817Z,-3.46
2018-02-26T06:13:39.389Z,-3.38
2018-02-26T06:14:19.919Z,-3.42
2018-02-26T06:15:00.538Z,-3.41
2018-02-26T06:15:41.100Z,-3.48
2018-02-26T06:16:21.650Z,-3.42
2018-02-26T06:17:02.198Z,-3.38
2018-02-26T06:17:42.749Z,-3.27
2018-02-26T06:18:23.310Z,-3.53
2018-02-26T06:19:03.866Z,-3.49
2018-02-26T06:19:44.418Z,-3.41
2018-02-26T06:20:24.984Z,-3.46
2018-02-26T06:21:05.540Z,-3.39
2018-02-26T06:21:46.094Z,-3.28
2018-02-26T06:22:26.665Z,-3.14
2018-02-26T06:23:07.213Z,-3.14
2018-02-26T06:23:47.760Z,-3.17
2018-02-26T06:24:28.310Z,-3.45
2018-02-26T06:25:08.864Z,-3.43
2018-02-26T06:25:49.406Z,-3.43
2018-02-26T06:26:29.981Z,-3.33
2018-02-26T06:27:10.537Z,-3.28
2018-02-26T06:27:51.090Z,-3.33
2018-02-26T06:28:31.611Z,-3.52
2018-02-26T06:29:12.192Z,-3.42
2018-02-26T06:29:52.726Z,-3.41
2018-02-26T06:30:33.259Z,-3.46
2018-02-26T06:31:13.801Z,-3.45
2018-02-26T06:31:54.356Z,-3.48
2018-02-26T06:32:34.912Z,-3.48
2018-02-26T06:33:15.461Z,-3.42
2018-02-26T06:33:56.006Z,-3.52
2018-02-26T06:34:36.557Z,-3.53
2018-02-26T06:35:17.109Z,-3.49
2018-02-26T06:35:57.653Z,-3.52
2018-02-26T06:36:38.211Z,-3.46
2018-02-26T06:37:18.768Z,-3.38
2018-02-26T06:37:59.322Z,-3.2
2018-02-26T06:38:39.887Z,-3.31
2018-02-26T06:39:20.432Z,-3.2
2018-02-26T06:40:00.992Z,-3.21
2018-02-26T06:40:41.538Z,-3.23
2018-02-26T06:41:22.099Z,-3.14
2018-02-26T06:42:02.624Z,-3.14
2018-02-26T06:42:43.149Z,-3.15
2018-02-26T06:43:23.697Z,-3.33
2018-02-26T06:44:04.229Z,-3.15
2018-02-26T06:44:45.004Z,-3.14
2018-02-26T06:45:25.448Z,-3.33
2018-02-26T06:46:05.948Z,-3.36
2018-02-26T06:46:46.489Z,-3.35
2018-02-26T06:47:27.001Z,-3.2
2018-02-26T06:48:07.563Z,-3.33
2018-02-26T06:48:48.082Z,-3.33
2018-02-26T06:49:28.597Z,-3.3
2018-02-26T06:50:09.126Z,-3.23
2018-02-26T06:50:49.700Z,-3.14
2018-02-26T06:51:30.236Z,-3.15
2018-02-26T06:52:10.793Z,-3.03
2018-02-26T06:52:51.338Z,-3
2018-02-26T06:53:31.899Z,-3.03
2018-02-26T06:54:12.435Z,-2.89
2018-02-26T06:54:52.980Z,-2.88
2018-02-26T06:55:33.572Z,-2.91
2018-02-26T06:56:14.096Z,-2.73
2018-02-26T06:56:54.638Z,-2.66
2018-02-26T06:57:35.214Z,-2.67
2018-02-26T06:58:15.788Z,-2.64
2018-02-26T06:58:56.300Z,-2.73
2018-02-26T06:59:36.845Z,-2.64
2018-02-26T07:00:17.385Z,-2.58
2018-02-26T07:00:57.932Z,-2.67
2018-02-26T07:01:38.460Z,-2.78
2018-02-26T07:02:19.027Z,-2.84
2018-02-26T07:02:59.570Z,-2.85
2018-02-26T07:03:40.149Z,-2.88
2018-02-26T07:04:20.714Z,-2.86
2018-02-26T07:05:01.290Z,-2.91
2018-02-26T07:05:41.813Z,-2.86
2018-02-26T07:06:22.530Z,-2.68
2018-02-26T07:07:03.086Z,-2.67
2018-02-26T07:07:43.678Z,-2.68
2018-02-26T07:08:24.197Z,-2.61
2018-02-26T07:09:04.735Z,-2.61
2018-02-26T07:09:45.540Z,-2.66
2018-02-26T07:10:26.113Z,-2.68
2018-02-26T07:11:06.686Z,-2.64
2018-02-26T07:11:47.287Z,-2.63
2018-02-26T07:12:27.831Z,-2.64
2018-02-26T07:13:08.349Z,-2.73
2018-02-26T07:13:48.937Z,-2.88
2018-02-26T07:14:29.445Z,-2.94
2018-02-26T07:15:09.992Z,-2.89
2018-02-26T07:15:50.496Z,-2.88
2018-02-26T07:16:31.072Z,-2.91
2018-02-26T07:17:11.903Z,-2.79
2018-02-26T07:17:52.450Z,-2.74
2018-02-26T07:18:33.213Z,-2.82
2018-02-26T07:19:13.781Z,-2.91
2018-02-26T07:19:54.294Z,-2.91
2018-02-26T07:20:35.556Z,-2.88
2018-02-26T07:21:16.124Z,-2.81
2018-02-26T07:21:57.111Z,-2.77
2018-02-26T07:22:37.666Z,-2.82
2018-02-26T07:23:18.122Z,-2.85
2018-02-26T07:23:58.647Z,-2.68
2018-02-26T07:24:39.277Z,-2.63
2018-02-26T07:25:19.769Z,-2.66
2018-02-26T07:26:00.261Z,-2.45
2018-02-26T07:26:40.831Z,-2.55
2018-02-26T07:27:21.400Z,-2.42
2018-02-26T07:28:01.954Z,-2.42
2018-02-26T07:28:42.490Z,-2.42
2018-02-26T07:29:23.060Z,-2.45
2018-02-26T07:30:03.631Z,-2.39
2018-02-26T07:30:44.125Z,-2.3
2018-02-26T07:31:24.656Z,-2.29
2018-02-26T07:32:05.186Z,-2.3
2018-02-26T07:32:46.506Z,-2.46
2018-02-26T07:33:27.078Z,-2.67
2018-02-26T07:34:07.586Z,-2.52
2018-02-26T07:34:48.138Z,-2.55
2018-02-26T07:35:28.706Z,-2.82
2018-02-26T07:36:09.255Z,-2.66
2018-02-26T07:36:49.846Z,-2.49
2018-02-26T07:37:30.347Z,-2.64
2018-02-26T07:38:10.903Z,-2.56
2018-02-26T07:38:51.441Z,-2.4
2018-02-26T07:39:31.965Z,-2.15
2018-02-26T07:40:12.543Z,-2.32
2018-02-26T07:40:53.109Z,-2.43
2018-02-26T07:41:33.624Z,-2.18
2018-02-26T07:42:14.167Z,-1.48
2018-02-26T07:42:54.713Z,-0.97
2018-02-26T07:43:35.380Z,-1.28
2018-02-26T07:44:15.952Z,-1.23
2018-02-26T07:44:56.463Z,-1.73
2018-02-26T07:45:36.974Z,-1.85
2018-02-26T07:46:17.492Z,-1.87
2018-02-26T07:46:58.026Z,-2.03
2018-02-26T07:47:38.627Z,-2.12
2018-02-26T07:48:19.186Z,-2.26
2018-02-26T07:48:59.716Z,-2.24
2018-02-26T07:49:40.190Z,-2.32
2018-02-26T07:50:20.715Z,-2.2
2018-02-26T07:51:01.266Z,-2.15
2018-02-26T07:51:41.806Z,-2.26
2018-02-26T07:52:22.312Z,-2.27
2018-02-26T07:53:02.904Z,-2.27
2018-02-26T07:53:43.656Z,-2.09
2018-02-26T07:54:24.167Z,-2.1
2018-02-26T07:55:04.707Z,-2.12
2018-02-26T07:55:45.280Z,-1.95
2018-02-26T07:56:25.808Z,-2.13
2018-02-26T07:57:06.336Z,-2.1
2018-02-26T07:57:46.822Z,-2
2018-02-26T07:58:27.391Z,-1.92
2018-02-26T07:59:07.888Z,-1.92
2018-02-26T07:59:48.432Z,-1.91
2018-02-26T08:00:28.944Z,-1.85
2018-02-26T08:01:09.543Z,-1.85
2018-02-26T08:01:50.069Z,-2.06
2018-02-26T08:02:30.566Z,-2.26
2018-02-26T08:03:11.089Z,-2.29
2018-02-26T08:03:51.618Z,-2.37
2018-02-26T08:04:32.160Z,-2.24
2018-02-26T08:05:12.704Z,-2.39
2018-02-26T08:05:53.213Z,-2.3
2018-02-26T08:06:33.815Z,-2.27
2018-02-26T08:07:14.327Z,-2.29
2018-02-26T08:07:54.852Z,-2.27
2018-02-26T08:08:35.398Z,-2.49
2018-02-26T08:09:15.930Z,-2.32
2018-02-26T08:09:56.471Z,-2.2
2018-02-26T08:10:37.015Z,-2.4
2018-02-26T08:11:17.560Z,-2.35
2018-02-26T08:11:58.081Z,-2.42
2018-02-26T08:12:38.643Z,-2.3
2018-02-26T08:13:19.203Z,-2.23
2018-02-26T08:13:59.728Z,-2.12
2018-02-26T08:14:40.271Z,-2.13
2018-02-26T08:15:20.890Z,-2.03
2018-02-26T08:16:01.422Z,-2.03
2018-02-26T08:16:41.880Z,-2.08
2018-02-26T08:17:22.424Z,-1.91
2018-02-26T08:18:02.972Z,-1.91
2018-02-26T08:18:43.508Z,-1.79
2018-02-26T08:19:24.054Z,-1.91
2018-02-26T08:20:04.590Z,-1.95
2018-02-26T08:20:45.128Z,-2.21
2018-02-26T08:21:25.703Z,-2.39
2018-02-26T08:22:06.273Z,-2.24
2018-02-26T08:22:47.376Z,-2.23
2018-02-26T08:23:27.598Z,-1.85
2018-02-26T08:24:08.132Z,-1.45
2018-02-26T08:24:48.686Z,-1.12
2018-02-26T08:25:29.264Z,-0.86
2018-02-26T08:26:09.813Z,-0.72
2018-02-26T08:26:50.365Z,-0.72
2018-02-26T08:27:31.000Z,-0.67
2018-02-26T08:28:11.457Z,-0.54
2018-02-26T08:28:52.019Z,-0.78
2018-02-26T08:29:32.582Z,-0.82
2018-02-26T08:30:13.147Z,-0.98
2018-02-26T08:30:53.707Z,-1.37
2018-02-26T08:31:34.266Z,-1.43
2018-02-26T08:32:14.814Z,-1.41
2018-02-26T08:32:55.376Z,-1.52
2018-02-26T08:33:35.919Z,-1.37
2018-02-26T08:34:16.593Z,-1.4
2018-02-26T08:34:57.080Z,-1.34
2018-02-26T08:35:37.641Z,-1.4
2018-02-26T08:36:18.243Z,-1.45
2018-02-26T08:36:58.791Z,-1.31
2018-02-26T08:37:39.359Z,-0.76
2018-02-26T08:38:19.949Z,-0.51
2018-02-26T08:39:00.508Z,-0.7
2018-02-26T08:39:41.057Z,-0.8
2018-02-26T08:40:21.610Z,-0.76
2018-02-26T08:41:02.169Z,-0.54
2018-02-26T08:41:42.699Z,-0.46
2018-02-26T08:42:24.046Z,-0.75
2018-02-26T08:43:03.778Z,-0.95
2018-02-26T08:43:44.334Z,-0.86
2018-02-26T08:44:24.891Z,-0.86
2018-02-26T08:45:05.480Z,-1.1